Terminal Aerodrome Forecast
Issued by NWS Quad Cities IA IL

Home | Current Version | Previous Version | Text Only | Print | Product List | Glossary On
Versions: 1 2 3 4 5 6 7 8 9 10 11 12 13 14 15
441
FTUS43 KDVN 161732
TAFDBQ
TAF
KDBQ 161732Z 1618/1718 10008KT 2SM -FZRA BR OVC004
     FM162100 10010KT 2SM -RA BR OVC003
     FM170000 08005KT 1/2SM -DZ FG OVC003
     FM171200 33008KT 1SM BR OVC001
     FM171600 35008KT 2SM BR OVC003=

USA.gov is the U.S. government's official web portal to all federal, state and local government web resources and services.